MSC Musica — 3EFK6 — position and weather

sailwx.info

Track history (hours):
 
Tides and Currents Weather Stations Pressure Air Temp Water Temp Dewpoint Dewpoint Depression Visibility Wind Speed Wind Dir Waves Ship Positions

MSC Musica

Last reported at 2017-Nov-18 00:19 UTC. Time now 2017-Dec-13 07:07 UTC.
Position N 35°58' W 005°37'.
Warning: this ship's position is 25 days out of date.

Length 294 m; draft 8 m.

Type: Ship. MMSI: 352003000.

Date/timePositionNaut miles runAvg speedWind from/ knotsBaromVisibWave heightAir tempDewpointWater temp
2017-Nov-18 00:19N 35°58' W 005°37'620.0
2017-Nov-18 00:00N 35°60' W 005°30'1019.6
2017-Nov-17 23:31N 36°03' W 005°19'  
2017-Nov-15 15:21N 36°24' E 013°38'720.1
2017-Nov-15 15:01N 36°21' E 013°45'1019.9
2017-Nov-15 14:30N 36°16' E 013°56'1020.0
2017-Nov-15 14:00N 36°12' E 014°07'1020.0
2017-Nov-15 13:30N 36°07' E 014°18'1020.0
2017-Nov-15 13:00N 36°02' E 014°29'815.5
2017-Nov-15 12:29N 35°54' E 014°32'1 0.1
2017-Nov-14 15:25N 35°53' E 014°31'2 3.8
2017-Nov-14 15:00N 35°55' E 014°32'713.9
2017-Nov-14 14:29N 35°60' E 014°38'817.1
2017-Nov-14 14:00N 36°06' E 014°45'917.3
2017-Nov-14 13:29N 36°13' E 014°51'10019.3
2017-Nov-14 08:18N 37°32' E 016°09'819.6
2017-Nov-14 07:53N 37°38' E 016°15'39012.0
2017-Nov-12 23:23N 43°57' E 014°11'819.8
2017-Nov-12 23:00N 44°03' E 014°05'1119.7
2017-Nov-12 22:27N 44°12' E 013°57'919.4
2017-Nov-12 22:00N 44°19' E 013°50'1019.2
2017-Nov-12 21:30N 44°27' E 013°43'1019.1
2017-Nov-12 21:00N 44°35' E 013°35'1018.9
2017-Nov-12 20:30N 44°43' E 013°28'919.0
2017-Nov-12 20:00N 44°51' E 013°21'1019.2
2017-Nov-12 19:30N 44°58' E 013°13'1019.5
2017-Nov-12 19:00N 45°05' E 013°03'1019.7
2017-Nov-12 18:30N 45°12' E 012°53'1019.7
2017-Nov-12 18:00N 45°18' E 012°42'918.5
2017-Nov-12 17:30N 45°23' E 012°30'511.0
2017-Nov-12 17:00N 45°26' E 012°24'2 5.0
2017-Nov-12 16:31N 45°26' E 012°20'1 2.5
2017-Nov-12 15:59N 45°26' E 012°19'0 0.0
2017-Nov-12 15:29N 45°26' E 012°19'0 0.0
2017-Nov-12 14:59N 45°26' E 012°19'0 0.0
2017-Nov-12 14:29N 45°26' E 012°19'0 0.0
2017-Nov-12 13:59N 45°26' E 012°19'0 0.0
2017-Nov-12 13:29N 45°26' E 012°19'0 0.0
2017-Nov-12 12:59N 45°26' E 012°19'0 0.0
2017-Nov-12 12:29N 45°26' E 012°19'0 0.0
2017-Nov-12 11:59N 45°26' E 012°19'0 0.0
2017-Nov-12 11:29N 45°26' E 012°19'0 0.0
2017-Nov-12 10:59N 45°26' E 012°19'0 0.0
2017-Nov-12 10:29N 45°26' E 012°19'0 0.5
2017-Nov-12 10:00N 45°26' E 012°19'3 5.1
2017-Nov-12 09:30N 45°25' E 012°22'3 5.3
2017-Nov-12 09:00N 45°25' E 012°26'4 8.1
2017-Nov-12 08:31N 45°24' E 012°31'0 0.5
2017-Nov-12 08:00N 45°24' E 012°32'0 0.0
2017-Nov-12 07:27N 45°24' E 012°32'0 0.0
2017-Nov-12 06:48N 45°24' E 012°32'0 0.0
2017-Nov-12 06:27N 45°24' E 012°32'0 0.0
2017-Nov-12 06:00N 45°24' E 012°32'0 0.0
2017-Nov-12 05:30N 45°24' E 012°32'0 0.0
2017-Nov-12 04:53N 45°24' E 012°32'0 0.0
2017-Nov-12 04:29N 45°24' E 012°32'0 0.0
2017-Nov-12 03:59N 45°24' E 012°32'0 0.0
2017-Nov-12 03:29N 45°24' E 012°32'0 0.0
2017-Nov-12 02:53N 45°24' E 012°32'0 0.0
2017-Nov-12 02:29N 45°24' E 012°32'0 0.0
2017-Nov-12 01:59N 45°24' E 012°32'0 0.0
2017-Nov-12 01:29N 45°24' E 012°32'0 0.0
2017-Nov-12 00:59N 45°24' E 012°32'0 0.0
2017-Nov-12 00:29N 45°24' E 012°32'0 0.0
2017-Nov-11 23:59N 45°24' E 012°32'0 0.1
2017-Nov-11 23:29N 45°24' E 012°32'1 1.4
2017-Nov-11 23:00N 45°24' E 012°32'3 5.4
2017-Nov-11 22:30N 45°22' E 012°35'5 9.7
2017-Nov-11 22:00N 45°23' E 012°42'5 9.8
2017-Nov-11 21:30N 45°25' E 012°48'5 9.7
2017-Nov-11 21:00N 45°26' E 012°55'5 9.8
2017-Nov-11 20:30N 45°29' E 013°01'5 9.5
2017-Nov-11 20:00N 45°31' E 013°07'5 9.6
2017-Nov-11 19:30N 45°32' E 013°14'5 9.8
2017-Nov-11 19:00N 45°34' E 013°20'5 9.8
2017-Nov-11 18:30N 45°36' E 013°27'5 9.7
2017-Nov-11 18:00N 45°38' E 013°33'4 8.9
2017-Nov-11 17:30N 45°36' E 013°39'5 9.1
2017-Nov-11 17:00N 45°33' E 013°44'0 0.0
2017-Nov-11 16:23N 45°33' E 013°44'0 0.0
2017-Nov-11 15:53N 45°33' E 013°44'0 0.0
2017-Nov-11 15:29N 45°33' E 013°44'0 0.0
2017-Nov-11 14:59N 45°33' E 013°44'0 0.0
2017-Nov-11 14:26N 45°33' E 013°44'0 0.0
2017-Nov-11 13:58N 45°33' E 013°44'0 0.0
2017-Nov-11 13:28N 45°33' E 013°44'0 0.0
2017-Nov-11 12:58N 45°33' E 013°44'0 0.0
2017-Nov-11 12:28N 45°33' E 013°44'0 0.0
2017-Nov-11 11:58N 45°33' E 013°44'0 0.0
2017-Nov-11 11:28N 45°33' E 013°44'0 0.0
2017-Nov-11 10:57N 45°33' E 013°44'0 0.0
2017-Nov-11 10:30N 45°33' E 013°44'0 0.0
2017-Nov-11 10:00N 45°33' E 013°44'0 0.0
2017-Nov-11 09:30N 45°33' E 013°44'0 0.0
2017-Nov-11 08:59N 45°33' E 013°44'0 0.0
2017-Nov-11 08:26N 45°33' E 013°44'0 0.0
2017-Nov-11 07:59N 45°33' E 013°44'0 0.1
2017-Nov-11 07:31N 45°33' E 013°44'2 3.1
2017-Nov-11 07:01N 45°34' E 013°42'4 8.2
2017-Nov-11 06:30N 45°35' E 013°36'4 9.0
2017-Nov-11 06:00N 45°34' E 013°30'5 9.7
2017-Nov-11 05:30N 45°31' E 013°24'510.1
2017-Nov-11 05:00N 45°28' E 013°18'510.3
2017-Nov-11 04:30N 45°25' E 013°12'5 9.8
2017-Nov-11 04:01N 45°20' E 013°10'510.4
2017-Nov-11 03:31N 45°15' E 013°12'510.3
2017-Nov-11 03:01N 45°10' E 013°14'510.3
2017-Nov-11 02:31N 45°06' E 013°18'510.3
2017-Nov-11 02:01N 45°02' E 013°23'510.3
2017-Nov-11 01:30N 44°59' E 013°28'510.3
2017-Nov-11 01:00N 44°54' E 013°32'510.4
2017-Nov-11 00:31N 44°50' E 013°37'510.4
2017-Nov-11 00:00N 44°46' E 013°42'510.5
2017-Nov-10 23:30N 44°42' E 013°46'510.8
2017-Nov-10 23:00N 44°39' E 013°52'611.7
2017-Nov-10 22:30N 44°35' E 013°58'611.8
2017-Nov-10 22:01N 44°31' E 014°04'611.8
2017-Nov-10 21:31N 44°27' E 014°11'611.7
2017-Nov-10 21:00N 44°26' E 014°19'611.7
2017-Nov-10 20:30N 44°24' E 014°27'5 0.3
2017-Nov-10 03:59N 44°23' E 014°33'612.5
2017-Nov-10 03:30N 44°23' E 014°25'612.3
2017-Nov-10 03:00N 44°24' E 014°16'612.2
2017-Nov-10 02:30N 44°25' E 014°08'612.1
2017-Nov-10 02:00N 44°26' E 013°59'611.7
2017-Nov-10 01:30N 44°26' E 013°51'5 9.9
2017-Nov-10 01:00N 44°26' E 013°44'612.1
2017-Nov-10 00:30N 44°31' E 013°39'612.0
2017-Nov-10 00:00N 44°36' E 013°34'611.9
2017-Nov-09 23:30N 44°41' E 013°30'611.8
2017-Nov-09 23:00N 44°46' E 013°25'611.8
2017-Nov-09 22:30N 44°51' E 013°21'611.9
2017-Nov-09 22:00N 44°56' E 013°16'611.9
2017-Nov-09 21:30N 44°60' E 013°10'611.6
2017-Nov-09 21:00N 45°04' E 013°04'611.6
2017-Nov-09 20:30N 45°08' E 012°58'611.8
2017-Nov-09 20:00N 45°12' E 012°52'611.9
2017-Nov-09 19:30N 45°16' E 012°46'611.9
2017-Nov-09 19:00N 45°20' E 012°39'611.6
2017-Nov-09 18:30N 45°22' E 012°32'510.7
2017-Nov-09 18:01N 45°25' E 012°26'3 6.1
2017-Nov-09 17:30N 45°26' E 012°21'2 4.0
2017-Nov-09 17:00N 45°26' E 012°19'0 0.1
2017-Nov-09 16:28N 45°26' E 012°19'0 0.0
2017-Nov-09 15:58N 45°26' E 012°19'0 0.0
2017-Nov-09 15:28N 45°26' E 012°19'0 0.0
2017-Nov-09 14:58N 45°26' E 012°19'0 0.0
2017-Nov-09 14:28N 45°26' E 012°19'0 0.0
2017-Nov-09 13:58N 45°26' E 012°19'0 0.0
2017-Nov-09 13:28N 45°26' E 012°19'0 0.0
2017-Nov-09 12:58N 45°26' E 012°19'0 0.0
2017-Nov-09 12:28N 45°26' E 012°19'0 0.0
2017-Nov-09 11:58N 45°26' E 012°19'0 0.0
2017-Nov-09 11:28N 45°26' E 012°19'0 0.0
2017-Nov-09 10:58N 45°26' E 012°19'0 0.0
2017-Nov-09 10:28N 45°26' E 012°19'0 0.0
2017-Nov-09 09:58N 45°26' E 012°19'0 0.0
2017-Nov-09 09:28N 45°26' E 012°19'0 0.0
2017-Nov-09 08:58N 45°26' E 012°19'0 0.0
2017-Nov-09 08:28N 45°26' E 012°19'0 0.0
2017-Nov-09 07:58N 45°26' E 012°19'0 0.0
2017-Nov-09 07:28N 45°26' E 012°19'0 0.0
2017-Nov-09 06:58N 45°26' E 012°19'0 1.0
2017-Nov-09 06:30N 45°26' E 012°19'2 4.9
2017-Nov-09 06:00N 45°26' E 012°23'4 7.5
2017-Nov-09 05:30N 45°24' E 012°28'611.6
2017-Nov-09 05:00N 45°22' E 012°35'815.5
2017-Nov-09 04:30N 45°17' E 012°44'816.7
2017-Nov-09 04:00N 45°12' E 012°53'816.9
2017-Nov-09 03:31N 45°06' E 013°02'816.7
2017-Nov-09 03:01N 45°01' E 013°11'917.7
2017-Nov-09 02:31N 44°56' E 013°21'917.9
2017-Nov-09 02:01N 44°49' E 013°29'917.8
2017-Nov-09 01:30N 44°41' E 013°36'917.7
2017-Nov-09 01:00N 44°34' E 013°43'917.6
2017-Nov-09 00:31N 44°27' E 013°50'917.7
2017-Nov-09 00:01N 44°19' E 013°57'917.8
2017-Nov-08 23:30N 44°12' E 014°04'917.8
2017-Nov-08 23:01N 44°06' E 014°13'  
Track history (hours):
 
Tides and Currents Weather Stations Pressure Air Temp Water Temp Dewpoint Dewpoint Depression Visibility Wind Speed Wind Dir Waves Ship Positions

MSC Musica

Last reported at 2017-Nov-18 00:19 UTC. Time now 2017-Dec-13 07:07 UTC.
Position N 35°58' W 005°37'.
Warning: this ship's position is 25 days out of date.

Length 294 m; draft 8 m.

Type: Ship. MMSI: 352003000.

Date/timePositionNaut miles runAvg speedWind from/ knotsBaromVisibWave heightAir tempDewpointWater temp
2017-Nov-18 00:19N 35°58' W 005°37'620.0
2017-Nov-18 00:00N 35°60' W 005°30'1019.6
2017-Nov-17 23:31N 36°03' W 005°19'  
2017-Nov-15 15:21N 36°24' E 013°38'720.1
2017-Nov-15 15:01N 36°21' E 013°45'1019.9
2017-Nov-15 14:30N 36°16' E 013°56'1020.0
2017-Nov-15 14:00N 36°12' E 014°07'1020.0
2017-Nov-15 13:30N 36°07' E 014°18'1020.0
2017-Nov-15 13:00N 36°02' E 014°29'815.5
2017-Nov-15 12:29N 35°54' E 014°32'1 0.1
2017-Nov-14 15:25N 35°53' E 014°31'2 3.8
2017-Nov-14 15:00N 35°55' E 014°32'713.9
2017-Nov-14 14:29N 35°60' E 014°38'817.1
2017-Nov-14 14:00N 36°06' E 014°45'917.3
2017-Nov-14 13:29N 36°13' E 014°51'10019.3
2017-Nov-14 08:18N 37°32' E 016°09'819.6
2017-Nov-14 07:53N 37°38' E 016°15'39012.0
2017-Nov-12 23:23N 43°57' E 014°11'819.8
2017-Nov-12 23:00N 44°03' E 014°05'1119.7
2017-Nov-12 22:27N 44°12' E 013°57'919.4
2017-Nov-12 22:00N 44°19' E 013°50'1019.2
2017-Nov-12 21:30N 44°27' E 013°43'1019.1
2017-Nov-12 21:00N 44°35' E 013°35'1018.9
2017-Nov-12 20:30N 44°43' E 013°28'919.0
2017-Nov-12 20:00N 44°51' E 013°21'1019.2
2017-Nov-12 19:30N 44°58' E 013°13'1019.5
2017-Nov-12 19:00N 45°05' E 013°03'1019.7
2017-Nov-12 18:30N 45°12' E 012°53'1019.7
2017-Nov-12 18:00N 45°18' E 012°42'918.5
2017-Nov-12 17:30N 45°23' E 012°30'511.0
2017-Nov-12 17:00N 45°26' E 012°24'2 5.0
2017-Nov-12 16:31N 45°26' E 012°20'1 2.5
2017-Nov-12 15:59N 45°26' E 012°19'0 0.0
2017-Nov-12 15:29N 45°26' E 012°19'0 0.0
2017-Nov-12 14:59N 45°26' E 012°19'0 0.0
2017-Nov-12 14:29N 45°26' E 012°19'0 0.0
2017-Nov-12 13:59N 45°26' E 012°19'0 0.0
2017-Nov-12 13:29N 45°26' E 012°19'0 0.0
2017-Nov-12 12:59N 45°26' E 012°19'0 0.0
2017-Nov-12 12:29N 45°26' E 012°19'0 0.0
2017-Nov-12 11:59N 45°26' E 012°19'0 0.0
2017-Nov-12 11:29N 45°26' E 012°19'0 0.0
2017-Nov-12 10:59N 45°26' E 012°19'0 0.0
2017-Nov-12 10:29N 45°26' E 012°19'0 0.5
2017-Nov-12 10:00N 45°26' E 012°19'3 5.1
2017-Nov-12 09:30N 45°25' E 012°22'3 5.3
2017-Nov-12 09:00N 45°25' E 012°26'4 8.1
2017-Nov-12 08:31N 45°24' E 012°31'0 0.5
2017-Nov-12 08:00N 45°24' E 012°32'0 0.0
2017-Nov-12 07:27N 45°24' E 012°32'0 0.0
2017-Nov-12 06:48N 45°24' E 012°32'0 0.0
2017-Nov-12 06:27N 45°24' E 012°32'0 0.0
2017-Nov-12 06:00N 45°24' E 012°32'0 0.0
2017-Nov-12 05:30N 45°24' E 012°32'0 0.0
2017-Nov-12 04:53N 45°24' E 012°32'0 0.0
2017-Nov-12 04:29N 45°24' E 012°32'0 0.0
2017-Nov-12 03:59N 45°24' E 012°32'0 0.0
2017-Nov-12 03:29N 45°24' E 012°32'0 0.0
2017-Nov-12 02:53N 45°24' E 012°32'0 0.0
2017-Nov-12 02:29N 45°24' E 012°32'0 0.0
2017-Nov-12 01:59N 45°24' E 012°32'0 0.0
2017-Nov-12 01:29N 45°24' E 012°32'0 0.0
2017-Nov-12 00:59N 45°24' E 012°32'0 0.0
2017-Nov-12 00:29N 45°24' E 012°32'0 0.0
2017-Nov-11 23:59N 45°24' E 012°32'0 0.1
2017-Nov-11 23:29N 45°24' E 012°32'1 1.4
2017-Nov-11 23:00N 45°24' E 012°32'3 5.4
2017-Nov-11 22:30N 45°22' E 012°35'5 9.7
2017-Nov-11 22:00N 45°23' E 012°42'5 9.8
2017-Nov-11 21:30N 45°25' E 012°48'5 9.7
2017-Nov-11 21:00N 45°26' E 012°55'5 9.8
2017-Nov-11 20:30N 45°29' E 013°01'5 9.5
2017-Nov-11 20:00N 45°31' E 013°07'5 9.6
2017-Nov-11 19:30N 45°32' E 013°14'5 9.8
2017-Nov-11 19:00N 45°34' E 013°20'5 9.8
2017-Nov-11 18:30N 45°36' E 013°27'5 9.7
2017-Nov-11 18:00N 45°38' E 013°33'4 8.9
2017-Nov-11 17:30N 45°36' E 013°39'5 9.1
2017-Nov-11 17:00N 45°33' E 013°44'0 0.0
2017-Nov-11 16:23N 45°33' E 013°44'0 0.0
2017-Nov-11 15:53N 45°33' E 013°44'0 0.0
2017-Nov-11 15:29N 45°33' E 013°44'0 0.0
2017-Nov-11 14:59N 45°33' E 013°44'0 0.0
2017-Nov-11 14:26N 45°33' E 013°44'0 0.0
2017-Nov-11 13:58N 45°33' E 013°44'0 0.0
2017-Nov-11 13:28N 45°33' E 013°44'0 0.0
2017-Nov-11 12:58N 45°33' E 013°44'0 0.0
2017-Nov-11 12:28N 45°33' E 013°44'0 0.0
2017-Nov-11 11:58N 45°33' E 013°44'0 0.0
2017-Nov-11 11:28N 45°33' E 013°44'0 0.0
2017-Nov-11 10:57N 45°33' E 013°44'0 0.0
2017-Nov-11 10:30N 45°33' E 013°44'0 0.0
2017-Nov-11 10:00N 45°33' E 013°44'0 0.0
2017-Nov-11 09:30N 45°33' E 013°44'0 0.0
2017-Nov-11 08:59N 45°33' E 013°44'0 0.0
2017-Nov-11 08:26N 45°33' E 013°44'0 0.0
2017-Nov-11 07:59N 45°33' E 013°44'0 0.1
2017-Nov-11 07:31N 45°33' E 013°44'2 3.1
2017-Nov-11 07:01N 45°34' E 013°42'4 8.2
2017-Nov-11 06:30N 45°35' E 013°36'4 9.0
2017-Nov-11 06:00N 45°34' E 013°30'5 9.7
2017-Nov-11 05:30N 45°31' E 013°24'510.1
2017-Nov-11 05:00N 45°28' E 013°18'510.3
2017-Nov-11 04:30N 45°25' E 013°12'5 9.8
2017-Nov-11 04:01N 45°20' E 013°10'510.4
2017-Nov-11 03:31N 45°15' E 013°12'510.3
2017-Nov-11 03:01N 45°10' E 013°14'510.3
2017-Nov-11 02:31N 45°06' E 013°18'510.3
2017-Nov-11 02:01N 45°02' E 013°23'510.3
2017-Nov-11 01:30N 44°59' E 013°28'510.3
2017-Nov-11 01:00N 44°54' E 013°32'510.4
2017-Nov-11 00:31N 44°50' E 013°37'510.4
2017-Nov-11 00:00N 44°46' E 013°42'510.5
2017-Nov-10 23:30N 44°42' E 013°46'510.8
2017-Nov-10 23:00N 44°39' E 013°52'611.7
2017-Nov-10 22:30N 44°35' E 013°58'611.8
2017-Nov-10 22:01N 44°31' E 014°04'611.8
2017-Nov-10 21:31N 44°27' E 014°11'611.7
2017-Nov-10 21:00N 44°26' E 014°19'611.7
2017-Nov-10 20:30N 44°24' E 014°27'5 0.3
2017-Nov-10 03:59N 44°23' E 014°33'612.5
2017-Nov-10 03:30N 44°23' E 014°25'612.3
2017-Nov-10 03:00N 44°24' E 014°16'612.2
2017-Nov-10 02:30N 44°25' E 014°08'612.1
2017-Nov-10 02:00N 44°26' E 013°59'611.7
2017-Nov-10 01:30N 44°26' E 013°51'5 9.9
2017-Nov-10 01:00N 44°26' E 013°44'612.1
2017-Nov-10 00:30N 44°31' E 013°39'612.0
2017-Nov-10 00:00N 44°36' E 013°34'611.9
2017-Nov-09 23:30N 44°41' E 013°30'611.8
2017-Nov-09 23:00N 44°46' E 013°25'611.8
2017-Nov-09 22:30N 44°51' E 013°21'611.9
2017-Nov-09 22:00N 44°56' E 013°16'611.9
2017-Nov-09 21:30N 44°60' E 013°10'611.6
2017-Nov-09 21:00N 45°04' E 013°04'611.6
2017-Nov-09 20:30N 45°08' E 012°58'611.8
2017-Nov-09 20:00N 45°12' E 012°52'611.9
2017-Nov-09 19:30N 45°16' E 012°46'611.9
2017-Nov-09 19:00N 45°20' E 012°39'611.6
2017-Nov-09 18:30N 45°22' E 012°32'510.7
2017-Nov-09 18:01N 45°25' E 012°26'3 6.1
2017-Nov-09 17:30N 45°26' E 012°21'2 4.0
2017-Nov-09 17:00N 45°26' E 012°19'0 0.1
2017-Nov-09 16:28N 45°26' E 012°19'0 0.0
2017-Nov-09 15:58N 45°26' E 012°19'0 0.0
2017-Nov-09 15:28N 45°26' E 012°19'0 0.0
2017-Nov-09 14:58N 45°26' E 012°19'0 0.0
2017-Nov-09 14:28N 45°26' E 012°19'0 0.0
2017-Nov-09 13:58N 45°26' E 012°19'0 0.0
2017-Nov-09 13:28N 45°26' E 012°19'0 0.0
2017-Nov-09 12:58N 45°26' E 012°19'0 0.0
2017-Nov-09 12:28N 45°26' E 012°19'0 0.0
2017-Nov-09 11:58N 45°26' E 012°19'0 0.0
2017-Nov-09 11:28N 45°26' E 012°19'0 0.0
2017-Nov-09 10:58N 45°26' E 012°19'0 0.0
2017-Nov-09 10:28N 45°26' E 012°19'0 0.0
2017-Nov-09 09:58N 45°26' E 012°19'0 0.0
2017-Nov-09 09:28N 45°26' E 012°19'0 0.0
2017-Nov-09 08:58N 45°26' E 012°19'0 0.0
2017-Nov-09 08:28N 45°26' E 012°19'0 0.0
2017-Nov-09 07:58N 45°26' E 012°19'0 0.0
2017-Nov-09 07:28N 45°26' E 012°19'0 0.0
2017-Nov-09 06:58N 45°26' E 012°19'0 1.0
2017-Nov-09 06:30N 45°26' E 012°19'2 4.9
2017-Nov-09 06:00N 45°26' E 012°23'4 7.5
2017-Nov-09 05:30N 45°24' E 012°28'611.6
2017-Nov-09 05:00N 45°22' E 012°35'815.5
2017-Nov-09 04:30N 45°17' E 012°44'816.7
2017-Nov-09 04:00N 45°12' E 012°53'816.9
2017-Nov-09 03:31N 45°06' E 013°02'816.7
2017-Nov-09 03:01N 45°01' E 013°11'917.7
2017-Nov-09 02:31N 44°56' E 013°21'917.9
2017-Nov-09 02:01N 44°49' E 013°29'917.8
2017-Nov-09 01:30N 44°41' E 013°36'917.7
2017-Nov-09 01:00N 44°34' E 013°43'917.6
2017-Nov-09 00:31N 44°27' E 013°50'917.7
2017-Nov-09 00:01N 44°19' E 013°57'917.8
2017-Nov-08 23:30N 44°12' E 014°04'917.8
2017-Nov-08 23:01N 44°06' E 014°13'  

Dump ship's entire track history